createdAt,value
2017-04-23T00:00:21.271Z,8.18
2017-04-23T00:01:01.762Z,8.2
2017-04-23T00:01:42.259Z,8.19
2017-04-23T00:02:22.752Z,8.16
2017-04-23T00:03:03.239Z,8.11
2017-04-23T00:03:43.765Z,8.11
2017-04-23T00:04:24.222Z,8.07
2017-04-23T00:05:04.722Z,8.07
2017-04-23T00:05:45.219Z,8.1
2017-04-23T00:06:25.703Z,8.05
2017-04-23T00:07:06.195Z,8.1
2017-04-23T00:07:46.687Z,8.08
2017-04-23T00:08:27.178Z,8.1
2017-04-23T00:09:07.671Z,8.04
2017-04-23T00:09:48.177Z,8.05
2017-04-23T00:10:28.658Z,8.04
2017-04-23T00:11:09.154Z,8.02
2017-04-23T00:11:49.617Z,7.98
2017-04-23T00:12:30.113Z,8.01
2017-04-23T00:13:10.594Z,8
2017-04-23T00:13:51.087Z,7.93
2017-04-23T00:14:31.583Z,7.98
2017-04-23T00:15:12.073Z,7.98
2017-04-23T00:15:52.541Z,8
2017-04-23T00:16:32.982Z,8.02
2017-04-23T00:17:13.466Z,7.97
2017-04-23T00:17:53.957Z,7.97
2017-04-23T00:18:34.463Z,7.9
2017-04-23T00:19:14.955Z,7.89
2017-04-23T00:19:55.451Z,7.86
2017-04-23T00:20:35.957Z,8
2017-04-23T00:21:16.417Z,7.93
2017-04-23T00:21:56.900Z,7.89
2017-04-23T00:22:37.394Z,7.92
2017-04-23T00:23:17.879Z,7.97
2017-04-23T00:23:58.381Z,7.93
2017-04-23T00:24:38.871Z,7.82
2017-04-23T00:25:19.356Z,7.79
2017-04-23T00:25:59.848Z,7.74
2017-04-23T00:26:40.339Z,7.8
2017-04-23T00:27:20.830Z,7.75
2017-04-23T00:28:01.327Z,7.69
2017-04-23T00:28:41.823Z,7.74
2017-04-23T00:29:22.309Z,7.71
2017-04-23T00:30:02.809Z,7.58
2017-04-23T00:30:43.296Z,7.69
2017-04-23T00:31:23.786Z,7.71
2017-04-23T00:32:04.282Z,7.61
2017-04-23T00:32:44.769Z,7.63
2017-04-23T00:33:25.262Z,7.53
2017-04-23T00:34:05.755Z,7.63
2017-04-23T00:34:46.254Z,7.52
2017-04-23T00:35:26.735Z,7.52
2017-04-23T00:36:07.214Z,7.53
2017-04-23T00:36:47.707Z,7.53
2017-04-23T00:37:28.215Z,7.49
2017-04-23T00:38:08.708Z,7.45
2017-04-23T00:38:49.196Z,7.43
2017-04-23T00:39:29.692Z,7.52
2017-04-23T00:40:10.186Z,7.42
2017-04-23T00:40:50.688Z,7.5
2017-04-23T00:41:31.170Z,7.5
2017-04-23T00:42:11.664Z,7.4
2017-04-23T00:42:52.156Z,7.4
2017-04-23T00:43:32.643Z,7.43
2017-04-23T00:44:13.129Z,7.37
2017-04-23T00:44:53.626Z,7.34
2017-04-23T00:45:34.117Z,7.32
2017-04-23T00:46:14.598Z,7.23
2017-04-23T00:46:55.087Z,7.23
2017-04-23T00:47:35.569Z,7.24
2017-04-23T00:48:16.056Z,7.23
2017-04-23T00:48:56.553Z,7.21
2017-04-23T00:49:37.049Z,7.21
2017-04-23T00:50:17.533Z,7.23
2017-04-23T00:50:58.030Z,7.13
2017-04-23T00:51:38.535Z,7.21
2017-04-23T00:52:19.010Z,7.21
2017-04-23T00:52:59.505Z,7.15
2017-04-23T00:53:40.007Z,7.1
2017-04-23T00:54:20.484Z,7.09
2017-04-23T00:55:00.984Z,7.07
2017-04-23T00:55:41.484Z,7.09
2017-04-23T00:56:21.972Z,6.97
2017-04-23T00:57:02.467Z,7.09
2017-04-23T00:57:42.960Z,7.05
2017-04-23T00:58:23.450Z,6.99
2017-04-23T00:59:03.942Z,7.06
2017-04-23T00:59:44.443Z,7.05
2017-04-23T01:00:24.913Z,7.12
2017-04-23T01:01:05.395Z,7.12
2017-04-23T01:01:45.881Z,7.07
2017-04-23T01:02:26.379Z,7.06
2017-04-23T01:03:06.848Z,7.13
2017-04-23T01:03:47.333Z,7.12
2017-04-23T01:04:27.820Z,7.23
2017-04-23T01:05:08.268Z,7.16
2017-04-23T01:05:48.725Z,7.12
2017-04-23T01:06:29.201Z,7.21
2017-04-23T01:07:09.690Z,7.15
2017-04-23T01:07:50.181Z,7.1
2017-04-23T01:08:30.650Z,7.1
2017-04-23T01:09:11.144Z,7.06
2017-04-23T01:09:51.639Z,7.03
2017-04-23T01:10:32.153Z,7.16
2017-04-23T01:11:12.621Z,7.02
2017-04-23T01:11:53.109Z,6.97
2017-04-23T01:12:33.599Z,6.97
2017-04-23T01:13:14.066Z,6.98
2017-04-23T01:13:54.546Z,6.91
2017-04-23T01:14:35.037Z,7.02
2017-04-23T01:16:32.674Z,7.02
2017-04-23T01:17:13.114Z,6.89
2017-04-23T01:17:53.605Z,6.89
2017-04-23T01:18:34.091Z,6.92
2017-04-23T01:19:14.581Z,7.02
2017-04-23T01:19:55.061Z,6.95
2017-04-23T01:20:35.545Z,6.92
2017-04-23T01:21:16.033Z,6.89
2017-04-23T01:23:28.777Z,6.88
2017-04-23T01:24:09.245Z,6.95
2017-04-23T01:24:49.725Z,6.85
2017-04-23T01:25:30.218Z,6.87
2017-04-23T01:26:10.714Z,6.85
2017-04-23T01:26:51.200Z,6.89
2017-04-23T01:27:31.703Z,6.85
2017-04-23T01:28:12.186Z,6.81
2017-04-23T01:28:52.674Z,6.81
2017-04-23T01:29:33.172Z,6.81
2017-04-23T01:30:13.646Z,6.8
2017-04-23T01:30:54.148Z,6.7
2017-04-23T01:31:34.617Z,6.7
2017-04-23T01:32:15.107Z,6.66
2017-04-23T01:32:55.605Z,6.56
2017-04-23T01:33:36.084Z,6.59
2017-04-23T01:34:16.572Z,6.52
2017-04-23T01:34:57.043Z,6.56
2017-04-23T01:35:37.532Z,6.52
2017-04-23T01:36:18.039Z,6.54
2017-04-23T01:36:58.513Z,6.54
2017-04-23T01:37:38.994Z,6.55
2017-04-23T01:38:19.485Z,6.64
2017-04-23T01:38:59.957Z,6.54
2017-04-23T01:39:40.451Z,6.54
2017-04-23T01:40:20.934Z,6.56
2017-04-23T01:41:01.421Z,6.64
2017-04-23T01:41:41.913Z,6.55
2017-04-23T01:42:22.372Z,6.66
2017-04-23T01:43:02.870Z,6.7
2017-04-23T01:43:43.370Z,6.66
2017-04-23T01:44:23.862Z,6.67
2017-04-23T01:45:04.361Z,6.71
2017-04-23T01:45:44.838Z,6.69
2017-04-23T01:46:25.342Z,6.61
2017-04-23T01:47:05.822Z,6.67
2017-04-23T01:47:46.313Z,6.73
2017-04-23T01:48:26.794Z,6.76
2017-04-23T01:49:07.278Z,6.79
2017-04-23T01:49:47.780Z,6.76
2017-04-23T01:50:28.287Z,6.81
2017-04-23T01:51:08.756Z,6.87
2017-04-23T01:51:49.245Z,6.84
2017-04-23T01:52:29.739Z,6.8
2017-04-23T01:53:10.211Z,6.91
2017-04-23T01:53:50.702Z,6.87
2017-04-23T01:54:31.208Z,6.79
2017-04-23T01:55:11.706Z,6.87
2017-04-23T01:55:52.177Z,6.84
2017-04-23T01:56:32.666Z,6.81
2017-04-23T01:57:13.149Z,6.8
2017-04-23T01:57:53.622Z,6.67
2017-04-23T01:58:34.117Z,6.77
2017-04-23T01:59:14.614Z,6.81
2017-04-23T01:59:55.100Z,6.88
2017-04-23T02:00:35.569Z,6.81
2017-04-23T02:01:16.082Z,6.84
2017-04-23T02:01:56.558Z,6.74
2017-04-23T02:02:37.066Z,6.79
2017-04-23T02:03:17.568Z,6.73
2017-04-23T02:03:58.039Z,6.8
2017-04-23T02:04:38.559Z,6.74
2017-04-23T02:05:19.050Z,6.77
2017-04-23T02:05:59.547Z,6.79
2017-04-23T02:06:40.034Z,6.76
2017-04-23T02:07:20.528Z,6.76
2017-04-23T02:08:01.024Z,6.76
2017-04-23T02:08:41.497Z,6.7
2017-04-23T02:09:21.999Z,6.8
2017-04-23T02:10:02.460Z,6.7
2017-04-23T02:10:42.942Z,6.73
2017-04-23T02:11:23.422Z,6.69
2017-04-23T02:12:03.923Z,6.64
2017-04-23T02:12:44.401Z,6.74
2017-04-23T02:13:24.896Z,6.66
2017-04-23T02:14:05.397Z,6.67
2017-04-23T02:14:45.882Z,6.67
2017-04-23T02:15:26.372Z,6.69
2017-04-23T02:16:06.874Z,6.62
2017-04-23T02:16:47.368Z,6.56
2017-04-23T02:17:27.836Z,6.64
2017-04-23T02:18:08.325Z,6.56
2017-04-23T02:18:48.810Z,6.66
2017-04-23T02:19:29.293Z,6.7
2017-04-23T02:20:09.789Z,6.69
2017-04-23T02:20:50.278Z,6.58
2017-04-23T02:21:30.781Z,6.64
2017-04-23T02:22:11.252Z,6.66
2017-04-23T02:22:51.729Z,6.66
2017-04-23T02:23:32.239Z,6.64
2017-04-23T02:24:12.712Z,6.67
2017-04-23T02:24:53.201Z,6.67
2017-04-23T02:25:33.701Z,6.62
2017-04-23T02:26:14.183Z,6.61
2017-04-23T02:26:54.679Z,6.69
2017-04-23T02:27:35.174Z,6.62
2017-04-23T02:28:15.662Z,6.58
2017-04-23T02:28:56.152Z,6.58
2017-04-23T02:29:36.632Z,6.67
2017-04-23T02:30:17.120Z,6.64
2017-04-23T02:30:57.608Z,6.64
2017-04-23T02:31:38.095Z,6.56
2017-04-23T02:32:18.583Z,6.59
2017-04-23T02:32:59.075Z,6.58
2017-04-23T02:33:39.549Z,6.59
2017-04-23T02:34:20.039Z,6.59
2017-04-23T02:35:00.547Z,6.56
2017-04-23T02:35:41.028Z,6.56
2017-04-23T02:36:21.528Z,6.55
2017-04-23T02:37:02.006Z,6.54
2017-04-23T02:37:42.495Z,6.58
2017-04-23T02:38:22.984Z,6.54
2017-04-23T02:39:03.471Z,6.54
2017-04-23T02:39:43.964Z,6.52
2017-04-23T02:40:24.459Z,6.56
2017-04-23T02:41:04.949Z,6.59
2017-04-23T02:41:45.420Z,6.58
2017-04-23T02:42:25.920Z,6.52
2017-04-23T02:43:06.381Z,6.44
2017-04-23T02:43:46.863Z,6.44
2017-04-23T02:44:27.364Z,6.46
2017-04-23T02:45:07.847Z,6.46
2017-04-23T02:45:48.329Z,6.43
2017-04-23T02:46:28.834Z,6.44
2017-04-23T02:47:09.317Z,6.44
2017-04-23T02:47:49.802Z,6.44
2017-04-23T02:48:30.310Z,6.55
2017-04-23T02:49:10.792Z,6.43
2017-04-23T02:49:51.295Z,6.38
2017-04-23T02:50:31.793Z,6.38
2017-04-23T02:51:12.263Z,6.38
2017-04-23T02:51:52.757Z,6.4
2017-04-23T02:52:33.256Z,6.38
2017-04-23T02:53:13.746Z,6.37
2017-04-23T02:53:54.241Z,6.37
2017-04-23T02:54:34.730Z,6.4
2017-04-23T02:55:15.239Z,6.36
2017-04-23T02:55:55.700Z,6.4
2017-04-23T02:56:36.187Z,6.37
2017-04-23T02:57:16.660Z,6.46
2017-04-23T02:57:57.158Z,6.37
2017-04-23T02:58:37.647Z,6.4
2017-04-23T02:59:18.159Z,6.38
2017-04-23T02:59:58.635Z,6.4
2017-04-23T03:00:39.136Z,6.4
2017-04-23T03:01:19.599Z,6.48
2017-04-23T03:02:00.054Z,6.4
2017-04-23T03:02:40.541Z,6.37
2017-04-23T03:03:21.027Z,6.4
2017-04-23T03:04:01.517Z,6.4
2017-04-23T03:04:42.021Z,6.52
2017-04-23T03:05:22.495Z,6.46
2017-04-23T03:06:02.968Z,6.48
2017-04-23T03:06:43.455Z,6.48
2017-04-23T03:07:23.935Z,6.44
2017-04-23T03:08:04.432Z,6.51
2017-04-23T03:08:44.910Z,6.36
2017-04-23T03:09:25.399Z,6.56
2017-04-23T03:10:05.864Z,6.46
2017-04-23T03:10:46.321Z,6.46
2017-04-23T03:11:26.798Z,6.46
2017-04-23T03:12:07.291Z,6.38
2017-04-23T03:12:47.781Z,6.4
2017-04-23T03:13:28.283Z,6.44
2017-04-23T03:14:08.779Z,6.46
2017-04-23T03:14:49.262Z,6.37
2017-04-23T03:15:29.753Z,6.41
2017-04-23T03:16:10.241Z,6.49
2017-04-23T03:16:50.726Z,6.41
2017-04-23T03:17:31.221Z,6.44
2017-04-23T03:18:11.711Z,6.36
2017-04-23T03:18:52.196Z,6.43
2017-04-23T03:19:32.679Z,6.43
2017-04-23T03:20:13.177Z,6.4
2017-04-23T03:20:53.656Z,6.37
2017-04-23T03:21:34.146Z,6.38
2017-04-23T03:22:14.632Z,6.36
2017-04-23T03:22:55.126Z,6.37
2017-04-23T03:23:35.625Z,6.38
2017-04-23T03:24:16.112Z,6.41
2017-04-23T03:24:56.627Z,6.31
2017-04-23T03:25:37.123Z,6.36
2017-04-23T03:26:17.623Z,6.43
2017-04-23T03:26:58.108Z,6.41
2017-04-23T03:27:38.602Z,6.33
2017-04-23T03:28:19.095Z,6.33
2017-04-23T03:28:59.597Z,6.28
2017-04-23T03:29:40.105Z,6.3
2017-04-23T03:30:20.582Z,6.19
2017-04-23T03:31:01.075Z,6.21
2017-04-23T03:31:41.574Z,6.21
2017-04-23T03:32:22.059Z,6.17
2017-04-23T03:33:02.537Z,6.11
2017-04-23T03:34:49.999Z,6.12
2017-04-23T03:35:30.461Z,5.94
2017-04-23T03:36:10.919Z,6
2017-04-23T03:38:03.476Z,5.96
2017-04-23T03:38:44.420Z,5.91
2017-04-23T03:39:24.913Z,5.82
2017-04-23T03:40:05.396Z,5.78
2017-04-23T03:40:45.878Z,5.78
2017-04-23T03:41:26.368Z,5.74
2017-04-23T03:42:06.855Z,5.74
2017-04-23T03:42:47.343Z,5.81
2017-04-23T03:43:27.831Z,5.71
2017-04-23T03:44:08.328Z,5.68
2017-04-23T03:44:48.834Z,5.6
2017-04-23T03:45:29.298Z,5.67
2017-04-23T03:46:09.781Z,5.6
2017-04-23T03:46:50.262Z,5.63
2017-04-23T03:47:30.766Z,5.64
2017-04-23T03:48:11.244Z,5.58
2017-04-23T03:48:51.735Z,5.58
2017-04-23T03:49:32.214Z,5.53
2017-04-23T03:50:12.701Z,5.48
2017-04-23T03:50:53.191Z,5.53
2017-04-23T03:51:33.677Z,5.49
2017-04-23T03:52:14.176Z,5.39
2017-04-23T03:52:54.658Z,5.39
2017-04-23T03:53:35.147Z,5.25
2017-04-23T03:54:15.652Z,5.28
2017-04-23T03:54:56.164Z,5.22
2017-04-23T03:55:36.630Z,5.24
2017-04-23T03:56:17.125Z,5.15
2017-04-23T03:56:57.614Z,5.1
2017-04-23T03:57:38.091Z,5.06
2017-04-23T03:58:18.578Z,5.1
2017-04-23T03:58:59.060Z,5.06
2017-04-23T03:59:39.548Z,5.04
2017-04-23T04:00:20.026Z,5.06
2017-04-23T04:01:00.498Z,5.04
2017-04-23T04:01:41.000Z,5.09
2017-04-23T04:02:21.483Z,5.03
2017-04-23T04:03:01.975Z,4.96
2017-04-23T04:03:42.470Z,4.99
2017-04-23T04:04:22.959Z,4.92
2017-04-23T04:05:03.438Z,4.85
2017-04-23T04:05:43.915Z,4.85
2017-04-23T04:06:24.413Z,4.78
2017-04-23T04:07:04.893Z,4.8
2017-04-23T04:07:45.375Z,4.8
2017-04-23T04:08:25.865Z,4.84
2017-04-23T04:09:06.363Z,4.94
2017-04-23T04:09:46.841Z,4.89
2017-04-23T04:10:27.327Z,4.97
2017-04-23T04:11:07.825Z,4.82
2017-04-23T04:11:48.311Z,4.85
2017-04-23T04:12:28.802Z,4.78
2017-04-23T04:13:09.301Z,4.82
2017-04-23T04:13:49.779Z,4.78
2017-04-23T04:14:30.280Z,4.84
2017-04-23T04:15:10.773Z,4.77
2017-04-23T04:15:51.263Z,4.8
2017-04-23T04:16:31.754Z,4.85
2017-04-23T04:17:12.255Z,4.69
2017-04-23T04:17:52.741Z,4.66
2017-04-23T04:18:33.233Z,4.73
2017-04-23T04:19:13.726Z,4.69
2017-04-23T04:19:54.217Z,4.69
2017-04-23T04:20:34.709Z,4.73
2017-04-23T04:21:15.209Z,4.78
2017-04-23T04:21:55.693Z,4.78
2017-04-23T04:22:36.169Z,4.73
2017-04-23T04:23:16.659Z,4.73
2017-04-23T04:23:57.149Z,4.63
2017-04-23T04:24:37.626Z,4.8
2017-04-23T04:25:18.121Z,4.73
2017-04-23T04:25:58.623Z,4.77
2017-04-23T04:26:39.099Z,4.84
2017-04-23T04:27:19.577Z,4.67
2017-04-23T04:28:00.062Z,4.7
2017-04-23T04:28:40.559Z,4.51
2017-04-23T04:29:21.042Z,4.54
2017-04-23T04:30:01.533Z,4.45
2017-04-23T04:30:42.031Z,4.5
2017-04-23T04:31:22.516Z,4.42
2017-04-23T04:32:02.997Z,4.5
2017-04-23T04:32:43.477Z,4.37
2017-04-23T04:33:23.968Z,4.32
2017-04-23T04:34:04.452Z,4.3
2017-04-23T04:34:44.945Z,4.36
2017-04-23T04:35:25.449Z,4.32
2017-04-23T04:36:05.927Z,4.34
2017-04-23T04:36:46.404Z,4.33
2017-04-23T04:37:26.883Z,4.22
2017-04-23T04:38:07.364Z,4.33
2017-04-23T04:38:47.860Z,4.36
2017-04-23T04:39:28.349Z,4.22
2017-04-23T04:40:08.831Z,4.27
2017-04-23T04:40:49.325Z,4.18
2017-04-23T04:41:29.793Z,4.23
2017-04-23T04:42:10.276Z,4.2
2017-04-23T04:42:50.760Z,4.23
2017-04-23T04:43:31.263Z,4.26
2017-04-23T04:44:11.740Z,4.16
2017-04-23T04:44:52.229Z,4.24
2017-04-23T04:45:32.731Z,4.09
2017-04-23T04:46:13.203Z,4.26
2017-04-23T04:46:53.688Z,4.18
2017-04-23T04:47:34.171Z,4.08
2017-04-23T04:48:14.652Z,4.18
2017-04-23T04:48:55.139Z,4.22
2017-04-23T04:49:35.626Z,4.05
2017-04-23T04:50:16.105Z,4.02
2017-04-23T04:50:56.595Z,4.14
2017-04-23T04:51:37.086Z,4.05
2017-04-23T04:52:17.555Z,4.08
2017-04-23T04:52:58.035Z,4.06
2017-04-23T04:53:38.531Z,4.05
2017-04-23T04:54:19.017Z,4.05
2017-04-23T04:54:59.496Z,4.05
2017-04-23T04:55:39.978Z,4.08
2017-04-23T04:56:20.469Z,4.05
2017-04-23T04:57:00.959Z,4.04
2017-04-23T04:57:41.450Z,4.06
2017-04-23T04:58:21.922Z,4.06
2017-04-23T04:59:02.405Z,4.04
2017-04-23T04:59:43.416Z,4.06
2017-04-23T05:01:56.131Z,4.06
2017-04-23T05:02:36.596Z,4.18
2017-04-23T05:03:17.096Z,4.15
2017-04-23T05:03:57.569Z,4.18
2017-04-23T05:04:38.042Z,4.2
2017-04-23T05:05:18.523Z,4.2
2017-04-23T05:05:59.007Z,4.18
2017-04-23T05:06:39.496Z,4.2
2017-04-23T05:07:19.987Z,4.24
2017-04-23T05:08:00.476Z,4.2
2017-04-23T05:08:40.969Z,4.24
2017-04-23T05:09:21.464Z,4.18
2017-04-23T05:10:01.973Z,4.14
2017-04-23T05:10:42.432Z,4.2
2017-04-23T05:11:22.915Z,4.2
2017-04-23T05:12:03.399Z,4.16
2017-04-23T05:12:43.891Z,4.2
2017-04-23T05:13:24.363Z,4.18
2017-04-23T05:14:04.851Z,4.12
2017-04-23T05:14:45.343Z,4.18
2017-04-23T05:15:25.810Z,4.2
2017-04-23T05:16:06.305Z,4.15
2017-04-23T05:16:46.777Z,4.16
2017-04-23T05:17:27.274Z,4.24
2017-04-23T05:19:24.891Z,4.2
2017-04-23T05:20:05.362Z,4.34
2017-04-23T05:20:45.850Z,4.34
2017-04-23T05:21:26.317Z,4.37
2017-04-23T05:22:06.813Z,4.47
2017-04-23T05:22:47.295Z,4.51
2017-04-23T05:23:27.772Z,4.54
2017-04-23T05:24:08.263Z,4.54
2017-04-23T05:24:48.750Z,4.7
2017-04-23T05:25:29.251Z,4.72
2017-04-23T05:26:09.708Z,4.77
2017-04-23T05:26:50.187Z,4.89
2017-04-23T05:27:30.721Z,4.97
2017-04-23T05:28:11.164Z,5.1
2017-04-23T05:28:51.652Z,5.13
2017-04-23T05:29:32.144Z,5.33
2017-04-23T05:30:12.632Z,5.4
2017-04-23T05:30:53.128Z,5.56
2017-04-23T05:31:33.592Z,5.76
2017-04-23T05:32:14.077Z,5.83
2017-04-23T05:32:54.566Z,5.94
2017-04-23T05:33:35.063Z,5.93
2017-04-23T05:34:15.566Z,6.11
2017-04-23T05:34:56.064Z,6.34
2017-04-23T05:35:36.513Z,6.43
2017-04-23T05:36:17.000Z,6.55
2017-04-23T05:36:57.487Z,6.7
2017-04-23T05:37:37.981Z,6.87
2017-04-23T05:38:18.470Z,7.07
2017-04-23T05:38:58.967Z,7.23
2017-04-23T05:39:39.472Z,7.34
2017-04-23T05:40:19.959Z,7.39
2017-04-23T05:41:00.463Z,7.5
2017-04-23T05:41:40.949Z,7.53
2017-04-23T05:42:21.443Z,7.6
2017-04-23T05:43:01.926Z,7.79
2017-04-23T05:43:42.417Z,8.01
2017-04-23T05:44:22.903Z,8.11
2017-04-23T05:45:03.398Z,8.18
2017-04-23T05:45:43.886Z,8.16
2017-04-23T05:46:24.378Z,8.36
2017-04-23T05:47:04.874Z,8.38
2017-04-23T05:47:45.363Z,8.48
2017-04-23T05:48:25.834Z,8.58
2017-04-23T05:49:06.318Z,8.79
2017-04-23T05:49:46.819Z,8.86
2017-04-23T05:50:27.284Z,8.86
2017-04-23T05:51:07.780Z,8.95
2017-04-23T05:51:48.271Z,9.14
2017-04-23T05:52:28.763Z,9.17
2017-04-23T05:53:09.238Z,9.1
2017-04-23T05:53:49.726Z,9.1
2017-04-23T05:54:30.224Z,9.2
2017-04-23T05:55:10.710Z,9.39
2017-04-23T05:55:51.208Z,9.48
2017-04-23T05:56:31.705Z,9.64
2017-04-23T05:57:12.190Z,9.74
2017-04-23T05:57:52.689Z,9.9
2017-04-23T05:58:33.191Z,10.02
2017-04-23T05:59:13.677Z,9.81
2017-04-23T05:59:54.185Z,9.76
2017-04-23T06:00:34.654Z,10.01
2017-04-23T06:01:15.141Z,9.89
2017-04-23T06:01:55.643Z,9.79
2017-04-23T06:02:36.132Z,9.79
2017-04-23T06:03:16.619Z,10.01
2017-04-23T06:03:57.117Z,10.08
2017-04-23T06:04:37.615Z,10.18
2017-04-23T06:05:18.102Z,10.01
2017-04-23T06:05:58.594Z,10.2
2017-04-23T06:06:39.091Z,10.17
2017-04-23T06:07:19.578Z,10.22
2017-04-23T06:08:00.073Z,10.02
2017-04-23T06:08:40.572Z,10.27
2017-04-23T06:09:21.049Z,10.26
2017-04-23T06:10:01.528Z,10.08
2017-04-23T06:10:42.020Z,10.18
2017-04-23T06:11:22.522Z,10.34
2017-04-23T06:12:03.004Z,10.68
2017-04-23T06:12:43.500Z,10.71
2017-04-23T06:13:24.001Z,10.89
2017-04-23T06:14:04.499Z,10.92
2017-04-23T06:14:44.995Z,11.07
2017-04-23T06:15:25.485Z,11.37
2017-04-23T06:16:05.980Z,11.32
2017-04-23T06:16:46.477Z,11.54
2017-04-23T06:17:26.976Z,11.67
2017-04-23T06:18:07.453Z,11.65
2017-04-23T06:18:47.952Z,11.28
2017-04-23T06:19:28.443Z,11.19
2017-04-23T06:20:08.928Z,11.44
2017-04-23T06:20:49.438Z,11.11
2017-04-23T06:21:29.914Z,10.47
2017-04-23T06:22:10.385Z,9.94
2017-04-23T06:22:50.884Z,10.66
2017-04-23T06:23:31.393Z,10.97
2017-04-23T06:24:11.874Z,11.19
2017-04-23T06:24:52.371Z,11.24
2017-04-23T06:25:32.847Z,10.88
2017-04-23T06:26:13.338Z,10.67
2017-04-23T06:26:53.833Z,10.66
2017-04-23T06:27:34.319Z,10.92
2017-04-23T06:28:14.815Z,11.15
2017-04-23T06:28:55.309Z,11.37
2017-04-23T06:29:35.809Z,11.55
2017-04-23T06:30:16.293Z,11.85
2017-04-23T06:30:56.778Z,11.51
2017-04-23T06:31:37.276Z,11.28
2017-04-23T06:32:17.771Z,11.76
2017-04-23T06:32:58.264Z,11.86
2017-04-23T06:33:38.753Z,11.98
2017-04-23T06:34:19.241Z,12.39
2017-04-23T06:34:59.740Z,12.37
2017-04-23T06:35:40.232Z,11.95
2017-04-23T06:36:20.720Z,12.32
2017-04-23T06:37:01.215Z,12.62
2017-04-23T06:37:41.708Z,12.74
2017-04-23T06:38:22.197Z,12.89
2017-04-23T06:39:02.687Z,12.89
2017-04-23T06:39:43.187Z,12.54
2017-04-23T06:40:23.673Z,12.68
2017-04-23T06:41:04.160Z,12.85
2017-04-23T06:41:44.661Z,12.71
2017-04-23T06:42:25.149Z,12.78
2017-04-23T06:43:05.645Z,12.78
2017-04-23T06:43:46.134Z,12.78
2017-04-23T06:44:26.625Z,12.96
2017-04-23T06:45:07.122Z,12.85
2017-04-23T06:45:47.618Z,12.78
2017-04-23T06:46:28.102Z,12.83
2017-04-23T06:47:08.598Z,13.15
2017-04-23T06:47:49.087Z,13.19
2017-04-23T06:48:29.580Z,12.97
2017-04-23T06:49:10.073Z,13.3
2017-04-23T06:49:50.568Z,13.59
2017-04-23T06:50:31.057Z,13.85
2017-04-23T06:51:11.548Z,13.46
2017-04-23T06:51:52.047Z,13.44
2017-04-23T06:52:32.536Z,13.51
2017-04-23T06:53:13.004Z,13.85
2017-04-23T06:53:53.507Z,14.03
2017-04-23T06:54:34.006Z,14.33
2017-04-23T06:55:14.503Z,14.69
2017-04-23T06:55:54.991Z,13.77
2017-04-23T06:56:35.482Z,12.65
2017-04-23T06:57:15.978Z,12.42
2017-04-23T06:57:56.482Z,12.23
2017-04-23T06:58:36.969Z,12.31
2017-04-23T06:59:17.457Z,12.5
2017-04-23T06:59:57.952Z,12.82
2017-04-23T07:00:38.440Z,13.07
2017-04-23T07:01:18.940Z,13.38
2017-04-23T07:01:59.437Z,13.63
2017-04-23T07:02:39.930Z,13.51
2017-04-23T07:03:20.385Z,13.14
2017-04-23T07:04:00.873Z,13.11
2017-04-23T07:04:41.364Z,12.95
2017-04-23T07:05:21.859Z,13.07
2017-04-23T07:06:02.354Z,13.2
2017-04-23T07:06:42.832Z,12.54
2017-04-23T07:07:23.331Z,12.96
2017-04-23T07:08:03.826Z,13.07
2017-04-23T07:08:44.339Z,13.07
2017-04-23T07:09:24.818Z,13.48
2017-04-23T07:10:05.308Z,13.6
2017-04-23T07:10:45.803Z,14.17
2017-04-23T07:11:26.289Z,14.6
2017-04-23T07:12:06.784Z,14.15
2017-04-23T07:12:47.282Z,14.55
2017-04-23T07:13:27.770Z,14.35
2017-04-23T07:14:08.260Z,14.36
2017-04-23T07:14:48.738Z,14.64
2017-04-23T07:15:29.233Z,14.42
2017-04-23T07:16:09.718Z,14.54
2017-04-23T07:16:50.212Z,15.03
2017-04-23T07:17:30.714Z,14.91
2017-04-23T07:18:11.210Z,14.96
2017-04-23T07:18:51.705Z,15.16
2017-04-23T07:19:32.200Z,15.51
2017-04-23T07:20:12.690Z,15.65
2017-04-23T07:21:50.036Z,14.89
2017-04-23T07:22:30.540Z,15.19
2017-04-23T07:23:11.032Z,15.01
2017-04-23T07:23:51.540Z,14.1
2017-04-23T07:24:32.018Z,13.07
2017-04-23T07:25:12.509Z,12.56
2017-04-23T07:25:52.995Z,12.53
2017-04-23T07:26:33.482Z,13.07
2017-04-23T07:27:13.967Z,13.01
2017-04-23T07:27:54.446Z,13.46
2017-04-23T07:28:34.949Z,13.77
2017-04-23T07:29:15.446Z,14.24
2017-04-23T07:29:55.935Z,14.64
2017-04-23T07:30:36.428Z,14.88
2017-04-23T07:31:16.925Z,14.86
2017-04-23T07:31:57.392Z,15.07
2017-04-23T07:32:37.903Z,15.31
2017-04-23T07:33:18.401Z,15.14
2017-04-23T07:33:58.901Z,15.34
2017-04-23T07:34:39.383Z,14.96
2017-04-23T07:35:19.884Z,13.91
2017-04-23T07:36:00.377Z,13.75
2017-04-23T07:36:40.860Z,13.07
2017-04-23T07:37:21.356Z,13.46
2017-04-23T07:38:01.849Z,13.67
2017-04-23T07:38:42.348Z,13.46
2017-04-23T07:39:22.839Z,13.57
2017-04-23T07:40:03.327Z,12.97
2017-04-23T07:40:43.830Z,12.2
2017-04-23T07:41:24.314Z,12.01
2017-04-23T07:42:04.811Z,12.19
2017-04-23T07:42:45.304Z,12.62
2017-04-23T07:43:25.786Z,12.12
2017-04-23T07:44:06.265Z,12.21
2017-04-23T07:44:46.767Z,12.85
2017-04-23T07:45:27.262Z,13.05
2017-04-23T07:46:07.760Z,12.57
2017-04-23T07:46:48.255Z,11.73
2017-04-23T07:47:28.752Z,10.61
2017-04-23T07:48:09.264Z,10.36
2017-04-23T07:48:49.758Z,10.59
2017-04-23T07:49:30.252Z,10.89
2017-04-23T07:50:10.733Z,11.6
2017-04-23T07:50:51.231Z,12.1
2017-04-23T07:51:31.735Z,11.98
2017-04-23T07:52:12.223Z,11.61
2017-04-23T07:52:52.714Z,11.62
2017-04-23T07:53:33.207Z,12.14
2017-04-23T07:54:13.699Z,12.6
2017-04-23T07:54:54.191Z,13.05
2017-04-23T07:55:34.693Z,13.64
2017-04-23T07:56:15.187Z,14.21
2017-04-23T07:56:55.668Z,14.22
2017-04-23T07:57:36.144Z,14.61
2017-04-23T07:58:16.651Z,14.99
2017-04-23T07:58:57.145Z,15.21
2017-04-23T07:59:37.656Z,15.51
2017-04-23T08:00:18.133Z,16.08
2017-04-23T08:00:58.624Z,16.57
2017-04-23T08:01:39.114Z,17.62
2017-04-23T08:02:19.610Z,18.21
2017-04-23T08:03:00.100Z,17.08
2017-04-23T08:03:40.601Z,17.49
2017-04-23T08:04:21.083Z,17.86
2017-04-23T08:05:01.581Z,15.8
2017-04-23T08:05:42.076Z,14.46
2017-04-23T08:06:22.560Z,14.29
2017-04-23T08:07:03.048Z,14.46
2017-04-23T08:07:43.565Z,13.95
2017-04-23T08:08:24.039Z,14.06
2017-04-23T08:09:04.527Z,14.28
2017-04-23T08:09:45.050Z,14.83
2017-04-23T08:10:25.513Z,15.06
2017-04-23T08:11:06.007Z,14.64
2017-04-23T08:11:46.506Z,14.73
2017-04-23T08:12:27.000Z,14.68
2017-04-23T08:13:07.487Z,14.17
2017-04-23T08:13:47.982Z,13.41
2017-04-23T08:14:28.506Z,12.93
2017-04-23T08:15:08.956Z,12.59
2017-04-23T08:15:49.465Z,12.27
2017-04-23T08:16:29.944Z,12.24
2017-04-23T08:17:10.436Z,12.13
2017-04-23T08:17:50.924Z,12.12
2017-04-23T08:18:31.420Z,11.91
2017-04-23T08:19:11.912Z,11.95
2017-04-23T08:19:52.432Z,12.45
2017-04-23T08:20:32.899Z,12.42
2017-04-23T08:21:13.417Z,13.63
2017-04-23T08:21:53.922Z,13.87
2017-04-23T08:22:34.412Z,14.36
2017-04-23T08:23:14.905Z,14.58
2017-04-23T08:23:55.438Z,14.43
2017-04-23T08:24:35.923Z,15.16
2017-04-23T08:25:16.409Z,15.31
2017-04-23T08:25:56.909Z,15.09
2017-04-23T08:26:37.407Z,14.86
2017-04-23T08:27:17.892Z,15.51
2017-04-23T08:27:58.385Z,14.88
2017-04-23T08:28:38.878Z,14.96
2017-04-23T08:29:19.371Z,15.93
2017-04-23T08:29:59.867Z,16.35
2017-04-23T08:30:40.360Z,16.93
2017-04-23T08:31:20.848Z,16.68
2017-04-23T08:32:01.340Z,16.75
2017-04-23T08:32:41.812Z,17.34
2017-04-23T08:33:22.331Z,17.34
2017-04-23T08:34:02.824Z,18.62
2017-04-23T08:34:43.318Z,19.32
2017-04-23T08:35:23.814Z,18.94
2017-04-23T08:36:04.319Z,19.33
2017-04-23T08:36:44.834Z,19.98
2017-04-23T08:37:25.298Z,20.54
2017-04-23T08:38:05.798Z,20.16
2017-04-23T08:38:46.295Z,19.33
2017-04-23T08:39:26.791Z,18.1
2017-04-23T08:40:07.284Z,18.65
2017-04-23T08:40:47.778Z,18.55
2017-04-23T08:41:28.279Z,18.99
2017-04-23T08:43:16.122Z,19.61
2017-04-23T08:43:56.554Z,18.1
2017-04-23T08:44:37.064Z,17.46
2017-04-23T08:45:17.571Z,17.25
2017-04-23T08:45:58.071Z,18.02
2017-04-23T08:46:38.584Z,18.63
2017-04-23T08:47:19.082Z,18.8
2017-04-23T08:47:59.576Z,17.46
2017-04-23T08:48:40.071Z,16.14
2017-04-23T08:49:20.574Z,15.36
2017-04-23T08:50:01.102Z,15.34
2017-04-23T08:50:41.557Z,15.6
2017-04-23T08:51:22.035Z,15.34
2017-04-23T08:52:02.532Z,14.99
2017-04-23T08:52:43.410Z,14.62
2017-04-23T08:53:24.034Z,13.99
2017-04-23T08:54:04.527Z,13.19
2017-04-23T08:54:45.012Z,13.39
2017-04-23T08:55:25.507Z,13.28
2017-04-23T08:56:05.997Z,13.52
2017-04-23T08:56:46.490Z,14.69
2017-04-23T08:57:26.980Z,14.98
2017-04-23T08:58:07.475Z,15.06
2017-04-23T08:58:47.962Z,14.99
2017-04-23T08:59:28.448Z,14.89
2017-04-23T09:00:08.925Z,14.55
2017-04-23T09:00:49.417Z,14.4
2017-04-23T09:01:29.898Z,13.52
2017-04-23T09:02:10.398Z,12.96
2017-04-23T09:02:50.879Z,12.59
2017-04-23T09:03:31.380Z,12.35
2017-04-23T09:04:11.870Z,11.58
2017-04-23T09:04:52.336Z,11.27